Etusivu
METAR-TAF:

METAR-TAF

Lentoasemat :

Büchel, Saksa

Leveyspiiri: 50-10N, Pituuspiiri: 007-04E, korkeus merenpinnasta: 478 m

Tämänhetkinen sää

Tämä raportti tehtiin 1 tunti ja 13 minuuttia sitten, kello 11.20 UTC
Tuuli 12 kn lounaasta
Lämpötila 5°C
Kosteus 93%
Ilmanpaine 1016 hPa
Näkyvyys: 0200 m

METAR: ETSB 241120Z AUTO 22012KT 0200 // ////// 05/04 Q1016 ///

Aika: 13:33 (12:33 UTC)


TAF: puuttuu

Säähavainnot ja -ennusteet yli 4000 lentoasemalta (METAR- ja TAF-raportit).

Käytössä olevat sääasemat on merkitty karttaan keltaisilla ja punaisilla pisteillä.

Aseta hiiri pisteen päälle nähdäksesi sääaseman nimen.

Klikkaa sitten nähdäksesi säähavainnot ja -ennusteet.

Kartan vaihtaminen: klikkaa mustalla rastilla varustettuja vihreitä pisteitä, niin voit zoomata sisään; viivalla varustettua vihreää pistettä, niin voit zoomata ulos tai vihreitä nuolia, niin pääset viereisille kartoille.


METAR-TAF: